sensor_id;sensor_type;location;lat;lon;timestamp;P1;P2;P0
31163;PMS5003;17796;49.296;-117.656;2023-11-19T00:06:00;24;20;
31163;PMS5003;17796;49.296;-117.656;2023-11-19T00:21:04;34;29;
31163;PMS5003;17796;49.296;-117.656;2023-11-19T00:36:10;24;24;
31163;PMS5003;17796;49.296;-117.656;2023-11-19T00:51:13;21;20;
31163;PMS5003;17796;49.296;-117.656;2023-11-19T01:06:28;25;24;
31163;PMS5003;17796;49.296;-117.656;2023-11-19T01:21:32;22;22;
31163;PMS5003;17796;49.296;-117.656;2023-11-19T01:36:36;33;24;
31163;PMS5003;17796;49.296;-117.656;2023-11-19T01:51:40;28;26;
31163;PMS5003;17796;49.296;-117.656;2023-11-19T02:06:45;22;21;
31163;PMS5003;17796;49.296;-117.656;2023-11-19T02:21:50;26;23;
31163;PMS5003;17796;49.296;-117.656;2023-11-19T02:36:54;18;16;
31163;PMS5003;17796;49.296;-117.656;2023-11-19T02:51:57;19;14;
31163;PMS5003;17796;49.296;-117.656;2023-11-19T03:07:02;16;15;
31163;PMS5003;17796;49.296;-117.656;2023-11-19T03:22:06;24;18;
31163;PMS5003;17796;49.296;-117.656;2023-11-19T03:37:09;19;14;
31163;PMS5003;17796;49.296;-117.656;2023-11-19T03:52:13;16;14;
31163;PMS5003;17796;49.296;-117.656;2023-11-19T04:07:16;13;11;
31163;PMS5003;17796;49.296;-117.656;2023-11-19T04:22:20;18;14;
31163;PMS5003;17796;49.296;-117.656;2023-11-19T04:37:23;19;12;
31163;PMS5003;17796;49.296;-117.656;2023-11-19T04:52:27;16;15;
31163;PMS5003;17796;49.296;-117.656;2023-11-19T05:07:31;10;10;
31163;PMS5003;17796;49.296;-117.656;2023-11-19T05:22:34;15;14;
31163;PMS5003;17796;49.296;-117.656;2023-11-19T05:37:38;16;12;
31163;PMS5003;17796;49.296;-117.656;2023-11-19T05:52:41;22;13;
31163;PMS5003;17796;49.296;-117.656;2023-11-19T06:07:45;12;10;
31163;PMS5003;17796;49.296;-117.656;2023-11-19T06:22:48;14;12;
31163;PMS5003;17796;49.296;-117.656;2023-11-19T06:37:52;18;15;
31163;PMS5003;17796;49.296;-117.656;2023-11-19T06:52:57;14;14;
31163;PMS5003;17796;49.296;-117.656;2023-11-19T07:08:01;10;10;
31163;PMS5003;17796;49.296;-117.656;2023-11-19T07:23:04;11;11;
31163;PMS5003;17796;49.296;-117.656;2023-11-19T07:38:08;12;12;
31163;PMS5003;17796;49.296;-117.656;2023-11-19T07:53:12;10;8;
31163;PMS5003;17796;49.296;-117.656;2023-11-19T08:08:16;13;10;
31163;PMS5003;17796;49.296;-117.656;2023-11-19T08:23:20;11;11;
31163;PMS5003;17796;49.296;-117.656;2023-11-19T08:38:24;12;11;
31163;PMS5003;17796;49.296;-117.656;2023-11-19T08:53:28;10;8;
31163;PMS5003;17796;49.296;-117.656;2023-11-19T09:08:32;12;11;
31163;PMS5003;17796;49.296;-117.656;2023-11-19T09:23:36;12;10;
31163;PMS5003;17796;49.296;-117.656;2023-11-19T09:38:40;12;11;
31163;PMS5003;17796;49.296;-117.656;2023-11-19T09:53:44;16;14;
31163;PMS5003;17796;49.296;-117.656;2023-11-19T10:08:48;16;11;
31163;PMS5003;17796;49.296;-117.656;2023-11-19T10:38:54;15;15;
31163;PMS5003;17796;49.296;-117.656;2023-11-19T10:54:03;15;14;
31163;PMS5003;17796;49.296;-117.656;2023-11-19T11:09:08;11;11;
31163;PMS5003;17796;49.296;-117.656;2023-11-19T11:24:32;14;13;
31163;PMS5003;17796;49.296;-117.656;2023-11-19T11:39:49;19;15;
31163;PMS5003;17796;49.296;-117.656;2023-11-19T11:54:53;16;14;
31163;PMS5003;17796;49.296;-117.656;2023-11-19T12:10:08;21;19;
31163;PMS5003;17796;49.296;-117.656;2023-11-19T12:25:13;18;12;
31163;PMS5003;17796;49.296;-117.656;2023-11-19T12:40:18;16;16;
31163;PMS5003;17796;49.296;-117.656;2023-11-19T12:55:26;18;16;
31163;PMS5003;17796;49.296;-117.656;2023-11-19T13:10:32;17;15;
31163;PMS5003;17796;49.296;-117.656;2023-11-19T13:25:36;19;14;
31163;PMS5003;17796;49.296;-117.656;2023-11-19T13:40:40;19;17;
31163;PMS5003;17796;49.296;-117.656;2023-11-19T13:55:44;18;15;
31163;PMS5003;17796;49.296;-117.656;2023-11-19T14:10:48;23;23;
31163;PMS5003;17796;49.296;-117.656;2023-11-19T14:25:52;24;21;
31163;PMS5003;17796;49.296;-117.656;2023-11-19T14:40:57;19;15;
31163;PMS5003;17796;49.296;-117.656;2023-11-19T14:56:01;24;22;
31163;PMS5003;17796;49.296;-117.656;2023-11-19T15:11:07;36;28;
31163;PMS5003;17796;49.296;-117.656;2023-11-19T15:26:14;22;18;
31163;PMS5003;17796;49.296;-117.656;2023-11-19T15:41:19;21;17;
31163;PMS5003;17796;49.296;-117.656;2023-11-19T15:56:22;22;20;
31163;PMS5003;17796;49.296;-117.656;2023-11-19T16:11:26;22;17;
31163;PMS5003;17796;49.296;-117.656;2023-11-19T16:26:30;17;17;
31163;PMS5003;17796;49.296;-117.656;2023-11-19T16:41:34;24;22;
31163;PMS5003;17796;49.296;-117.656;2023-11-19T16:56:37;23;21;
31163;PMS5003;17796;49.296;-117.656;2023-11-19T17:11:41;18;16;
31163;PMS5003;17796;49.296;-117.656;2023-11-19T17:26:45;24;23;
31163;PMS5003;17796;49.296;-117.656;2023-11-19T17:41:48;21;17;
31163;PMS5003;17796;49.296;-117.656;2023-11-19T17:56:53;21;18;
31163;PMS5003;17796;49.296;-117.656;2023-11-19T18:11:57;19;18;
31163;PMS5003;17796;49.296;-117.656;2023-11-19T18:27:00;17;14;
31163;PMS5003;17796;49.296;-117.656;2023-11-19T18:42:05;27;22;
31163;PMS5003;17796;49.296;-117.656;2023-11-19T18:57:08;16;16;
31163;PMS5003;17796;49.296;-117.656;2023-11-19T19:12:12;19;18;
31163;PMS5003;17796;49.296;-117.656;2023-11-19T19:27:15;27;18;
31163;PMS5003;17796;49.296;-117.656;2023-11-19T19:42:19;17;16;
31163;PMS5003;17796;49.296;-117.656;2023-11-19T19:57:23;19;14;
31163;PMS5003;17796;49.296;-117.656;2023-11-19T20:12:26;22;19;
31163;PMS5003;17796;49.296;-117.656;2023-11-19T20:27:30;17;17;
31163;PMS5003;17796;49.296;-117.656;2023-11-19T20:42:34;27;18;
31163;PMS5003;17796;49.296;-117.656;2023-11-19T20:57:38;18;17;
31163;PMS5003;17796;49.296;-117.656;2023-11-19T21:12:42;20;20;
31163;PMS5003;17796;49.296;-117.656;2023-11-19T21:27:46;16;16;
31163;PMS5003;17796;49.296;-117.656;2023-11-19T21:42:50;24;17;
31163;PMS5003;17796;49.296;-117.656;2023-11-19T21:57:54;25;20;
31163;PMS5003;17796;49.296;-117.656;2023-11-19T22:12:57;15;13;
31163;PMS5003;17796;49.296;-117.656;2023-11-19T22:28:01;19;17;
31163;PMS5003;17796;49.296;-117.656;2023-11-19T22:43:05;18;16;
31163;PMS5003;17796;49.296;-117.656;2023-11-19T22:58:09;21;18;
31163;PMS5003;17796;49.296;-117.656;2023-11-19T23:13:12;15;13;
31163;PMS5003;17796;49.296;-117.656;2023-11-19T23:28:16;22;14;
31163;PMS5003;17796;49.296;-117.656;2023-11-19T23:43:19;21;16;
31163;PMS5003;17796;49.296;-117.656;2023-11-19T23:58:23;19;16;
